sensor_id;sensor_type;location;lat;lon;timestamp;pressure;altitude;pressure_sealevel;temperature;humidity
54453;BME280;40363;52.270;10.546;2022-07-10T00:00:00;76705.13;;;-147.06;58.31
54453;BME280;40363;52.270;10.546;2022-07-10T00:02:26;76717.44;;;-147.06;58.52
54453;BME280;40363;52.270;10.546;2022-07-10T00:04:53;76725.66;;;-147.06;58.67
54453;BME280;40363;52.270;10.546;2022-07-10T00:07:20;76715.38;;;-147.06;58.70
54453;BME280;40363;52.270;10.546;2022-07-10T00:09:46;76715.38;;;-147.06;58.83
54453;BME280;40363;52.270;10.546;2022-07-10T00:12:14;76713.34;;;-147.06;59.11
54453;BME280;40363;52.270;10.546;2022-07-10T00:14:41;76719.50;;;-147.06;58.86
54453;BME280;40363;52.270;10.546;2022-07-10T00:17:08;76711.28;;;-147.06;59.09
54453;BME280;40363;52.270;10.546;2022-07-10T00:19:34;76713.34;;;-147.06;59.14
54453;BME280;40363;52.270;10.546;2022-07-10T00:22:01;76715.38;;;-147.06;59.04
54453;BME280;40363;52.270;10.546;2022-07-10T00:24:28;76711.28;;;-147.06;59.04
54453;BME280;40363;52.270;10.546;2022-07-10T00:26:55;76711.28;;;-147.06;58.66
54453;BME280;40363;52.270;10.546;2022-07-10T00:29:23;76711.28;;;-147.06;58.99
54453;BME280;40363;52.270;10.546;2022-07-10T00:31:49;76715.38;;;-147.06;58.93
54453;BME280;40363;52.270;10.546;2022-07-10T00:34:16;76703.06;;;-147.06;58.69
54453;BME280;40363;52.270;10.546;2022-07-10T00:36:43;76703.06;;;-147.06;58.52
54453;BME280;40363;52.270;10.546;2022-07-10T00:39:09;76719.50;;;-147.06;58.71
54453;BME280;40363;52.270;10.546;2022-07-10T00:41:36;76725.66;;;-147.06;58.97
54453;BME280;40363;52.270;10.546;2022-07-10T00:44:03;76731.84;;;-147.06;58.78
54453;BME280;40363;52.270;10.546;2022-07-10T00:46:32;76731.84;;;-147.06;58.80
54453;BME280;40363;52.270;10.546;2022-07-10T00:48:59;76727.72;;;-147.06;58.78
54453;BME280;40363;52.270;10.546;2022-07-10T00:51:27;76725.66;;;-147.06;58.77
54453;BME280;40363;52.270;10.546;2022-07-10T00:53:55;76727.72;;;-147.06;58.49
54453;BME280;40363;52.270;10.546;2022-07-10T00:56:24;76733.88;;;-147.06;58.22
54453;BME280;40363;52.270;10.546;2022-07-10T00:58:51;76748.28;;;-147.06;59.40
54453;BME280;40363;52.270;10.546;2022-07-10T01:01:19;76756.50;;;-147.06;60.94
54453;BME280;40363;52.270;10.546;2022-07-10T01:03:49;76762.66;;;-147.06;61.32
54453;BME280;40363;52.270;10.546;2022-07-10T01:06:17;76775.00;;;-147.06;61.35
54453;BME280;40363;52.270;10.546;2022-07-10T01:08:45;76777.06;;;-147.06;61.51
54453;BME280;40363;52.270;10.546;2022-07-10T01:11:13;76762.66;;;-147.06;61.75
54453;BME280;40363;52.270;10.546;2022-07-10T01:13:39;76766.78;;;-147.06;62.32
54453;BME280;40363;52.270;10.546;2022-07-10T01:16:07;76760.63;;;-147.06;62.40
54453;BME280;40363;52.270;10.546;2022-07-10T01:18:34;76770.88;;;-147.06;62.26
54453;BME280;40363;52.270;10.546;2022-07-10T01:21:02;76772.94;;;-147.06;62.74
54453;BME280;40363;52.270;10.546;2022-07-10T01:23:29;76772.94;;;-147.06;63.74
54453;BME280;40363;52.270;10.546;2022-07-10T01:25:56;76787.34;;;-147.06;65.82
54453;BME280;40363;52.270;10.546;2022-07-10T01:28:23;76816.13;;;-147.06;66.64
54453;BME280;40363;52.270;10.546;2022-07-10T01:30:49;76828.44;;;-147.06;67.68
54453;BME280;40363;52.270;10.546;2022-07-10T01:33:16;76830.50;;;-147.06;68.04
54453;BME280;40363;52.270;10.546;2022-07-10T01:35:43;76822.28;;;-147.06;68.11
54453;BME280;40363;52.270;10.546;2022-07-10T01:38:11;76828.44;;;-147.06;68.49
54453;BME280;40363;52.270;10.546;2022-07-10T01:40:38;76844.88;;;-147.06;68.81
54453;BME280;40363;52.270;10.546;2022-07-10T01:43:05;76846.94;;;-147.06;70.65
54453;BME280;40363;52.270;10.546;2022-07-10T01:45:32;76861.34;;;-147.06;72.35
54453;BME280;40363;52.270;10.546;2022-07-10T01:47:59;76879.84;;;-147.06;73.58
54453;BME280;40363;52.270;10.546;2022-07-10T01:50:26;76890.13;;;-147.06;74.07
54453;BME280;40363;52.270;10.546;2022-07-10T01:52:52;76900.38;;;-147.06;75.12
54453;BME280;40363;52.270;10.546;2022-07-10T01:55:20;76908.63;;;-147.06;75.64
54453;BME280;40363;52.270;10.546;2022-07-10T01:57:47;76892.16;;;-147.06;76.21
54453;BME280;40363;52.270;10.546;2022-07-10T02:00:14;76886.00;;;-147.06;75.84
54453;BME280;40363;52.270;10.546;2022-07-10T02:02:40;76881.88;;;-147.06;75.96
54453;BME280;40363;52.270;10.546;2022-07-10T02:05:27;76877.78;;;-147.06;76.11
54453;BME280;40363;52.270;10.546;2022-07-10T02:07:53;76863.38;;;-147.06;75.78
54453;BME280;40363;52.270;10.546;2022-07-10T02:10:21;76853.13;;;-147.06;75.52
54453;BME280;40363;52.270;10.546;2022-07-10T02:12:48;76846.94;;;-147.06;74.99
54453;BME280;40363;52.270;10.546;2022-07-10T02:15:14;76857.22;;;-147.06;74.04
54453;BME280;40363;52.270;10.546;2022-07-10T02:17:41;76851.06;;;-147.06;74.07
54453;BME280;40363;52.270;10.546;2022-07-10T02:20:08;76836.66;;;-147.06;73.91
54453;BME280;40363;52.270;10.546;2022-07-10T02:22:36;76838.72;;;-147.06;73.08
54453;BME280;40363;52.270;10.546;2022-07-10T02:25:03;76834.63;;;-147.06;72.48
54453;BME280;40363;52.270;10.546;2022-07-10T02:27:31;76834.63;;;-147.06;72.06
54453;BME280;40363;52.270;10.546;2022-07-10T02:29:58;76832.56;;;-147.06;72.11
54453;BME280;40363;52.270;10.546;2022-07-10T02:32:24;76826.38;;;-147.06;71.34
54453;BME280;40363;52.270;10.546;2022-07-10T02:34:51;76822.28;;;-147.06;70.51
54453;BME280;40363;52.270;10.546;2022-07-10T02:37:18;76809.94;;;-147.06;70.44
54453;BME280;40363;52.270;10.546;2022-07-10T02:39:45;76807.88;;;-147.06;69.58
54453;BME280;40363;52.270;10.546;2022-07-10T02:42:11;76801.72;;;-147.06;68.39
54453;BME280;40363;52.270;10.546;2022-07-10T02:44:39;76793.50;;;-147.06;67.83
54453;BME280;40363;52.270;10.546;2022-07-10T02:47:06;76797.63;;;-147.06;67.55
54453;BME280;40363;52.270;10.546;2022-07-10T02:49:32;76791.44;;;-147.06;66.99
54453;BME280;40363;52.270;10.546;2022-07-10T02:51:59;76789.38;;;-147.06;67.24
54453;BME280;40363;52.270;10.546;2022-07-10T02:54:26;76789.38;;;-147.06;66.02
54453;BME280;40363;52.270;10.546;2022-07-10T02:56:52;76779.13;;;-147.06;66.02
54453;BME280;40363;52.270;10.546;2022-07-10T02:59:19;76783.22;;;-147.06;65.88
54453;BME280;40363;52.270;10.546;2022-07-10T03:01:47;76777.06;;;-147.06;65.27
54453;BME280;40363;52.270;10.546;2022-07-10T03:04:13;76777.06;;;-147.06;65.33
54453;BME280;40363;52.270;10.546;2022-07-10T03:06:40;76768.84;;;-147.06;65.45
54453;BME280;40363;52.270;10.546;2022-07-10T03:09:09;76762.66;;;-147.06;64.67
54453;BME280;40363;52.270;10.546;2022-07-10T03:11:36;76777.06;;;-147.06;64.83
54453;BME280;40363;52.270;10.546;2022-07-10T03:14:02;76772.94;;;-147.06;64.82
54453;BME280;40363;52.270;10.546;2022-07-10T03:16:31;76766.78;;;-147.06;64.99
54453;BME280;40363;52.270;10.546;2022-07-10T03:18:59;76777.06;;;-147.06;64.55
54453;BME280;40363;52.270;10.546;2022-07-10T03:21:25;76768.84;;;-147.06;64.87
54453;BME280;40363;52.270;10.546;2022-07-10T03:23:52;76758.56;;;-147.06;64.57
54453;BME280;40363;52.270;10.546;2022-07-10T03:26:18;76764.72;;;-147.06;64.65
54453;BME280;40363;52.270;10.546;2022-07-10T03:28:45;76772.94;;;-147.06;65.00
54453;BME280;40363;52.270;10.546;2022-07-10T03:31:11;76764.72;;;-147.06;64.65
54453;BME280;40363;52.270;10.546;2022-07-10T03:33:38;76775.00;;;-147.06;64.80
54453;BME280;40363;52.270;10.546;2022-07-10T03:36:06;76768.84;;;-147.06;65.53
54453;BME280;40363;52.270;10.546;2022-07-10T03:38:33;76775.00;;;-147.06;65.81
54453;BME280;40363;52.270;10.546;2022-07-10T03:40:59;76787.34;;;-147.06;66.28
54453;BME280;40363;52.270;10.546;2022-07-10T03:43:26;76789.38;;;-147.06;66.77
54453;BME280;40363;52.270;10.546;2022-07-10T03:45:52;76826.38;;;-147.06;68.75
54453;BME280;40363;52.270;10.546;2022-07-10T03:48:20;76828.44;;;-147.06;70.17
54453;BME280;40363;52.270;10.546;2022-07-10T03:51:09;76844.88;;;-147.06;72.07
54453;BME280;40363;52.270;10.546;2022-07-10T03:53:35;76853.13;;;-147.06;73.52
54453;BME280;40363;52.270;10.546;2022-07-10T03:56:03;76861.34;;;-147.06;74.03
54453;BME280;40363;52.270;10.546;2022-07-10T03:58:30;76875.72;;;-147.06;74.45
54453;BME280;40363;52.270;10.546;2022-07-10T04:00:55;76869.56;;;-147.06;74.26
54453;BME280;40363;52.270;10.546;2022-07-10T04:03:22;76875.72;;;-147.06;74.25
54453;BME280;40363;52.270;10.546;2022-07-10T04:05:49;76869.56;;;-147.06;74.42
54453;BME280;40363;52.270;10.546;2022-07-10T04:08:17;76871.63;;;-147.06;74.14
54453;BME280;40363;52.270;10.546;2022-07-10T04:10:43;76863.38;;;-147.06;74.02
54453;BME280;40363;52.270;10.546;2022-07-10T04:13:10;76863.38;;;-147.06;74.34
54453;BME280;40363;52.270;10.546;2022-07-10T04:15:36;76844.88;;;-147.06;74.23
54453;BME280;40363;52.270;10.546;2022-07-10T04:18:03;76836.66;;;-147.06;73.82
54453;BME280;40363;52.270;10.546;2022-07-10T04:20:29;76838.72;;;-147.06;73.14
54453;BME280;40363;52.270;10.546;2022-07-10T04:22:56;76842.84;;;-147.06;73.02
54453;BME280;40363;52.270;10.546;2022-07-10T04:25:24;76830.50;;;-147.06;73.25
54453;BME280;40363;52.270;10.546;2022-07-10T04:27:51;76838.72;;;-147.06;73.42
54453;BME280;40363;52.270;10.546;2022-07-10T04:30:17;76826.38;;;-147.06;73.03
54453;BME280;40363;52.270;10.546;2022-07-10T04:32:44;76826.38;;;-147.06;72.70
54453;BME280;40363;52.270;10.546;2022-07-10T04:35:10;76818.16;;;-147.06;72.38
54453;BME280;40363;52.270;10.546;2022-07-10T04:37:37;76797.63;;;-147.06;72.26
54453;BME280;40363;52.270;10.546;2022-07-10T04:40:05;76816.13;;;-147.06;72.39
54453;BME280;40363;52.270;10.546;2022-07-10T04:42:33;76814.06;;;-147.06;72.30
54453;BME280;40363;52.270;10.546;2022-07-10T04:45:00;76820.22;;;-147.06;72.03
54453;BME280;40363;52.270;10.546;2022-07-10T04:47:27;76814.06;;;-147.06;71.88
54453;BME280;40363;52.270;10.546;2022-07-10T04:49:54;76816.13;;;-147.06;71.37
54453;BME280;40363;52.270;10.546;2022-07-10T04:52:20;76812.00;;;-147.06;71.43
54453;BME280;40363;52.270;10.546;2022-07-10T04:54:47;76822.28;;;-147.06;71.28
54453;BME280;40363;52.270;10.546;2022-07-10T04:57:14;76818.16;;;-147.06;71.29
54453;BME280;40363;52.270;10.546;2022-07-10T04:59:42;76814.06;;;-147.06;70.88
54453;BME280;40363;52.270;10.546;2022-07-10T05:02:12;76822.28;;;-147.06;70.38
54453;BME280;40363;52.270;10.546;2022-07-10T05:04:38;76818.16;;;-147.06;70.85
54453;BME280;40363;52.270;10.546;2022-07-10T05:07:05;76809.94;;;-147.06;70.61
54453;BME280;40363;52.270;10.546;2022-07-10T05:09:32;76789.38;;;-147.06;70.21
54453;BME280;40363;52.270;10.546;2022-07-10T05:11:58;76789.38;;;-147.06;70.06
54453;BME280;40363;52.270;10.546;2022-07-10T05:14:25;76777.06;;;-147.06;69.17
54453;BME280;40363;52.270;10.546;2022-07-10T05:16:53;76777.06;;;-147.06;69.26
54453;BME280;40363;52.270;10.546;2022-07-10T05:19:20;76781.16;;;-147.06;69.63
54453;BME280;40363;52.270;10.546;2022-07-10T05:21:47;76772.94;;;-147.06;69.27
54453;BME280;40363;52.270;10.546;2022-07-10T05:24:13;76777.06;;;-147.06;69.59
54453;BME280;40363;52.270;10.546;2022-07-10T05:26:40;76768.84;;;-147.06;69.54
54453;BME280;40363;52.270;10.546;2022-07-10T05:29:07;76764.72;;;-147.06;69.71
54453;BME280;40363;52.270;10.546;2022-07-10T05:31:34;76772.94;;;-147.06;69.28
54453;BME280;40363;52.270;10.546;2022-07-10T05:34:02;76762.66;;;-147.06;68.78
54453;BME280;40363;52.270;10.546;2022-07-10T05:36:28;76756.50;;;-147.06;69.23
54453;BME280;40363;52.270;10.546;2022-07-10T05:38:55;76756.50;;;-147.06;68.72
54453;BME280;40363;52.270;10.546;2022-07-10T05:41:22;76752.38;;;-147.06;68.04
54453;BME280;40363;52.270;10.546;2022-07-10T05:43:48;76750.34;;;-147.06;68.35
54453;BME280;40363;52.270;10.546;2022-07-10T05:46:15;76742.09;;;-147.06;67.88
54453;BME280;40363;52.270;10.546;2022-07-10T05:48:42;76740.06;;;-147.06;68.09
54453;BME280;40363;52.270;10.546;2022-07-10T05:51:10;76715.38;;;-147.06;67.55
54453;BME280;40363;52.270;10.546;2022-07-10T05:53:37;76715.38;;;-147.06;67.29
54453;BME280;40363;52.270;10.546;2022-07-10T05:56:04;76719.50;;;-147.06;67.21
54453;BME280;40363;52.270;10.546;2022-07-10T05:58:31;76727.72;;;-147.06;66.84
54453;BME280;40363;52.270;10.546;2022-07-10T06:00:58;76717.44;;;-147.06;67.38
54453;BME280;40363;52.270;10.546;2022-07-10T06:03:24;76715.38;;;-147.06;66.44
54453;BME280;40363;52.270;10.546;2022-07-10T06:05:51;76723.63;;;-147.06;66.58
54453;BME280;40363;52.270;10.546;2022-07-10T06:08:19;76727.72;;;-147.06;66.78
54453;BME280;40363;52.270;10.546;2022-07-10T06:10:46;76719.50;;;-147.06;66.33
54453;BME280;40363;52.270;10.546;2022-07-10T06:13:12;76711.28;;;-147.06;66.26
54453;BME280;40363;52.270;10.546;2022-07-10T06:15:39;76701.00;;;-147.06;65.77
54453;BME280;40363;52.270;10.546;2022-07-10T06:18:06;76692.78;;;-147.06;65.23
54453;BME280;40363;52.270;10.546;2022-07-10T06:20:32;76682.50;;;-147.06;64.68
54453;BME280;40363;52.270;10.546;2022-07-10T06:22:59;76664.00;;;-147.06;63.90
54453;BME280;40363;52.270;10.546;2022-07-10T06:25:27;76641.41;;;-147.06;63.04
54453;BME280;40363;52.270;10.546;2022-07-10T06:27:54;76635.22;;;-147.06;62.52
54453;BME280;40363;52.270;10.546;2022-07-10T06:30:20;76624.94;;;-147.06;61.99
54453;BME280;40363;52.270;10.546;2022-07-10T06:32:47;76614.69;;;-147.06;61.30
54453;BME280;40363;52.270;10.546;2022-07-10T06:35:14;76596.19;;;-147.06;61.25
54453;BME280;40363;52.270;10.546;2022-07-10T06:37:41;76590.00;;;-147.06;60.43
54453;BME280;40363;52.270;10.546;2022-07-10T06:40:11;76575.63;;;-147.06;59.92
54453;BME280;40363;52.270;10.546;2022-07-10T06:42:40;76567.41;;;-147.06;59.56
54453;BME280;40363;52.270;10.546;2022-07-10T06:45:08;76557.13;;;-147.06;59.37
54453;BME280;40363;52.270;10.546;2022-07-10T06:47:34;76555.06;;;-147.06;59.09
54453;BME280;40363;52.270;10.546;2022-07-10T06:50:22;76536.56;;;-147.06;59.02
54453;BME280;40363;52.270;10.546;2022-07-10T06:52:49;76542.72;;;-147.06;58.79
54453;BME280;40363;52.270;10.546;2022-07-10T06:55:18;76546.84;;;-147.06;58.73
54453;BME280;40363;52.270;10.546;2022-07-10T06:57:46;76553.00;;;-147.06;58.52
54453;BME280;40363;52.270;10.546;2022-07-10T07:00:13;76536.56;;;-147.06;58.14
54453;BME280;40363;52.270;10.546;2022-07-10T07:02:41;76526.28;;;-147.06;58.09
54453;BME280;40363;52.270;10.546;2022-07-10T07:05:08;76499.56;;;-147.06;57.47
54453;BME280;40363;52.270;10.546;2022-07-10T07:07:35;76481.06;;;-147.06;56.69
54453;BME280;40363;52.270;10.546;2022-07-10T07:10:02;76394.75;;;-147.06;55.08
54453;BME280;40363;52.270;10.546;2022-07-10T07:12:30;76384.47;;;-147.06;54.97
54453;BME280;40363;52.270;10.546;2022-07-10T07:14:58;76417.34;;;-147.06;55.49
54453;BME280;40363;52.270;10.546;2022-07-10T07:17:25;76439.97;;;-147.06;56.09
54453;BME280;40363;52.270;10.546;2022-07-10T07:19:59;76384.47;;;-147.06;54.88
54453;BME280;40363;52.270;10.546;2022-07-10T07:22:43;76376.25;;;-147.06;54.39
54453;BME280;40363;52.270;10.546;2022-07-10T07:25:27;76425.56;;;-147.06;55.01
54453;BME280;40363;52.270;10.546;2022-07-10T07:27:53;76390.63;;;-147.06;54.73
54453;BME280;40363;52.270;10.546;2022-07-10T07:30:22;76324.88;;;-147.06;52.97
54453;BME280;40363;52.270;10.546;2022-07-10T07:32:48;76283.75;;;-147.06;52.30
54453;BME280;40363;52.270;10.546;2022-07-10T07:35:15;76291.97;;;-147.06;52.73
54453;BME280;40363;52.270;10.546;2022-07-10T07:37:43;76283.75;;;-147.06;52.46
54453;BME280;40363;52.270;10.546;2022-07-10T07:40:13;76304.31;;;-147.06;52.19
54453;BME280;40363;52.270;10.546;2022-07-10T07:42:40;76328.97;;;-147.06;52.46
54453;BME280;40363;52.270;10.546;2022-07-10T07:45:08;76304.31;;;-147.06;52.01
54453;BME280;40363;52.270;10.546;2022-07-10T07:47:44;76230.31;;;-147.06;50.48
54453;BME280;40363;52.270;10.546;2022-07-10T07:50:12;76238.53;;;-147.06;50.60
54453;BME280;40363;52.270;10.546;2022-07-10T07:52:38;76304.31;;;-147.06;51.36
54453;BME280;40363;52.270;10.546;2022-07-10T07:55:06;76328.97;;;-147.06;51.63
54453;BME280;40363;52.270;10.546;2022-07-10T07:57:33;76320.75;;;-147.06;51.66
54453;BME280;40363;52.270;10.546;2022-07-10T08:00:00;76324.88;;;-147.06;51.52
54453;BME280;40363;52.270;10.546;2022-07-10T08:02:26;76178.94;;;-147.06;49.24
54453;BME280;40363;52.270;10.546;2022-07-10T08:04:54;76195.38;;;-147.06;48.34
54453;BME280;40363;52.270;10.546;2022-07-10T08:07:21;76275.53;;;-147.06;49.55
54453;BME280;40363;52.270;10.546;2022-07-10T08:09:48;76326.91;;;-147.06;50.87
54453;BME280;40363;52.270;10.546;2022-07-10T08:12:15;76363.91;;;-147.06;52.16
54453;BME280;40363;52.270;10.546;2022-07-10T08:14:41;76398.84;;;-147.06;52.52
54453;BME280;40363;52.270;10.546;2022-07-10T08:17:08;76417.34;;;-147.06;52.46
54453;BME280;40363;52.270;10.546;2022-07-10T08:19:35;76431.75;;;-147.06;52.69
54453;BME280;40363;52.270;10.546;2022-07-10T08:22:03;76400.91;;;-147.06;52.39
54453;BME280;40363;52.270;10.546;2022-07-10T08:24:30;76370.09;;;-147.06;51.66
54453;BME280;40363;52.270;10.546;2022-07-10T08:26:57;76343.38;;;-147.06;50.54
54453;BME280;40363;52.270;10.546;2022-07-10T08:29:23;76259.09;;;-147.06;49.33
54453;BME280;40363;52.270;10.546;2022-07-10T08:31:50;76102.91;;;-147.06;46.28
54453;BME280;40363;52.270;10.546;2022-07-10T08:34:17;76008.38;;;-147.06;44.80
54453;BME280;40363;52.270;10.546;2022-07-10T08:36:43;76026.84;;;-147.06;45.09
54453;BME280;40363;52.270;10.546;2022-07-10T08:39:11;76107.00;;;-147.06;45.83
54453;BME280;40363;52.270;10.546;2022-07-10T08:41:42;75907.66;;;-147.06;43.66
54453;BME280;40363;52.270;10.546;2022-07-10T08:44:10;75774.09;;;-147.06;42.12
54453;BME280;40363;52.270;10.546;2022-07-10T08:46:37;75784.38;;;-147.06;41.59
54453;BME280;40363;52.270;10.546;2022-07-10T08:49:08;75897.38;;;-147.06;41.83
54453;BME280;40363;52.270;10.546;2022-07-10T08:51:41;75998.09;;;-147.06;43.70
54453;BME280;40363;52.270;10.546;2022-07-10T08:54:13;76057.69;;;-147.06;44.22
54453;BME280;40363;52.270;10.546;2022-07-10T08:56:40;76074.13;;;-147.06;44.71
54453;BME280;40363;52.270;10.546;2022-07-10T08:59:08;75971.38;;;-147.06;43.34
54453;BME280;40363;52.270;10.546;2022-07-10T09:01:34;76004.25;;;-147.06;43.77
54453;BME280;40363;52.270;10.546;2022-07-10T09:04:01;76098.78;;;-147.06;45.12
54453;BME280;40363;52.270;10.546;2022-07-10T09:06:28;76137.84;;;-147.06;45.18
54453;BME280;40363;52.270;10.546;2022-07-10T09:08:59;76119.34;;;-147.06;45.01
54453;BME280;40363;52.270;10.546;2022-07-10T09:11:28;76102.91;;;-147.06;45.18
54453;BME280;40363;52.270;10.546;2022-07-10T09:13:57;76135.78;;;-147.06;45.83
54453;BME280;40363;52.270;10.546;2022-07-10T09:16:25;76111.13;;;-147.06;45.43
54453;BME280;40363;52.270;10.546;2022-07-10T09:18:53;75858.34;;;-147.06;41.92
54453;BME280;40363;52.270;10.546;2022-07-10T09:21:20;76008.38;;;-147.06;43.23
54453;BME280;40363;52.270;10.546;2022-07-10T09:23:47;75885.06;;;-147.06;41.70
54453;BME280;40363;52.270;10.546;2022-07-10T09:26:14;75769.97;;;-147.06;40.08
54453;BME280;40363;52.270;10.546;2022-07-10T09:28:43;75796.69;;;-147.06;40.39
54453;BME280;40363;52.270;10.546;2022-07-10T09:31:09;75913.81;;;-147.06;42.58
54453;BME280;40363;52.270;10.546;2022-07-10T09:33:36;75778.19;;;-147.06;40.40
54453;BME280;40363;52.270;10.546;2022-07-10T09:36:05;75718.59;;;-147.06;39.73
54453;BME280;40363;52.270;10.546;2022-07-10T09:38:48;75648.72;;;-147.06;38.83
54453;BME280;40363;52.270;10.546;2022-07-10T09:41:16;75708.31;;;-147.06;38.84
54453;BME280;40363;52.270;10.546;2022-07-10T09:43:45;75901.50;;;-147.06;40.49
54453;BME280;40363;52.270;10.546;2022-07-10T09:46:12;76004.25;;;-147.06;41.51
54453;BME280;40363;52.270;10.546;2022-07-10T09:48:39;76047.41;;;-147.06;42.17
54453;BME280;40363;52.270;10.546;2022-07-10T09:51:07;76088.50;;;-147.06;42.79
54453;BME280;40363;52.270;10.546;2022-07-10T09:53:37;76100.84;;;-147.06;42.36
54453;BME280;40363;52.270;10.546;2022-07-10T09:56:06;75979.59;;;-147.06;41.54
54453;BME280;40363;52.270;10.546;2022-07-10T09:58:35;75835.75;;;-147.06;39.94
54453;BME280;40363;52.270;10.546;2022-07-10T10:01:05;75763.81;;;-147.06;38.94
54453;BME280;40363;52.270;10.546;2022-07-10T10:03:33;75687.78;;;-147.06;38.17
54453;BME280;40363;52.270;10.546;2022-07-10T10:06:09;75700.09;;;-147.06;38.23
54453;BME280;40363;52.270;10.546;2022-07-10T10:08:44;75821.34;;;-147.06;39.36
54453;BME280;40363;52.270;10.546;2022-07-10T10:11:14;75920.00;;;-147.06;40.58
54453;BME280;40363;52.270;10.546;2022-07-10T10:13:42;75983.69;;;-147.06;41.24
54453;BME280;40363;52.270;10.546;2022-07-10T10:16:11;76026.84;;;-147.06;41.38
54453;BME280;40363;52.270;10.546;2022-07-10T10:18:40;75827.50;;;-147.06;39.46
54453;BME280;40363;52.270;10.546;2022-07-10T10:21:22;75753.53;;;-147.06;38.69
54453;BME280;40363;52.270;10.546;2022-07-10T10:23:51;75784.38;;;-147.06;38.65
54453;BME280;40363;52.270;10.546;2022-07-10T10:26:21;75848.06;;;-147.06;38.96
54453;BME280;40363;52.270;10.546;2022-07-10T10:28:52;75755.59;;;-147.06;38.20
54453;BME280;40363;52.270;10.546;2022-07-10T10:31:23;75708.31;;;-147.06;37.36
54453;BME280;40363;52.270;10.546;2022-07-10T10:33:54;75831.63;;;-147.06;38.75
54453;BME280;40363;52.270;10.546;2022-07-10T10:36:43;75769.97;;;-147.06;38.19
54453;BME280;40363;52.270;10.546;2022-07-10T10:39:11;75720.66;;;-147.06;37.20
54453;BME280;40363;52.270;10.546;2022-07-10T10:41:40;75722.72;;;-147.06;36.59
54453;BME280;40363;52.270;10.546;2022-07-10T10:44:27;75815.19;;;-147.06;37.58
54453;BME280;40363;52.270;10.546;2022-07-10T10:47:04;75843.97;;;-147.06;38.82
54453;BME280;40363;52.270;10.546;2022-07-10T10:50:05;75938.50;;;-147.06;40.47
54453;BME280;40363;52.270;10.546;2022-07-10T10:52:32;75991.91;;;-147.06;41.40
54453;BME280;40363;52.270;10.546;2022-07-10T10:55:05;75996.03;;;-147.06;41.91
54453;BME280;40363;52.270;10.546;2022-07-10T10:57:41;75998.09;;;-147.06;41.33
54453;BME280;40363;52.270;10.546;2022-07-10T11:00:32;75938.50;;;-147.06;40.67
54453;BME280;40363;52.270;10.546;2022-07-10T11:03:13;75860.41;;;-147.06;39.94
54453;BME280;40363;52.270;10.546;2022-07-10T11:05:42;75767.91;;;-147.06;39.58
54453;BME280;40363;52.270;10.546;2022-07-10T11:08:10;75739.16;;;-147.06;39.34
54453;BME280;40363;52.270;10.546;2022-07-10T11:10:38;75733.00;;;-147.06;38.53
54453;BME280;40363;52.270;10.546;2022-07-10T11:13:06;75687.78;;;-147.06;37.70
54453;BME280;40363;52.270;10.546;2022-07-10T11:15:37;75671.34;;;-147.06;37.39
54453;BME280;40363;52.270;10.546;2022-07-10T11:18:05;75640.50;;;-147.06;36.62
54453;BME280;40363;52.270;10.546;2022-07-10T11:20:35;75617.91;;;-147.06;36.14
54453;BME280;40363;52.270;10.546;2022-07-10T11:23:36;75726.81;;;-147.06;36.29
54453;BME280;40363;52.270;10.546;2022-07-10T11:26:11;75724.75;;;-147.06;36.37
54453;BME280;40363;52.270;10.546;2022-07-10T11:28:49;75753.53;;;-147.06;37.27
54453;BME280;40363;52.270;10.546;2022-07-10T11:31:16;75806.97;;;-147.06;37.54
54453;BME280;40363;52.270;10.546;2022-07-10T11:33:44;75823.41;;;-147.06;38.57
54453;BME280;40363;52.270;10.546;2022-07-10T11:36:14;75806.97;;;-147.06;38.56
54453;BME280;40363;52.270;10.546;2022-07-10T11:38:41;75778.19;;;-147.06;38.42
54453;BME280;40363;52.270;10.546;2022-07-10T11:41:16;75774.09;;;-147.06;38.83
54453;BME280;40363;52.270;10.546;2022-07-10T11:43:52;75794.63;;;-147.06;39.24
54453;BME280;40363;52.270;10.546;2022-07-10T11:46:23;75806.97;;;-147.06;38.45
54453;BME280;40363;52.270;10.546;2022-07-10T11:48:51;75806.97;;;-147.06;38.01
54453;BME280;40363;52.270;10.546;2022-07-10T11:51:26;75843.97;;;-147.06;37.53
54453;BME280;40363;52.270;10.546;2022-07-10T11:53:58;75835.75;;;-147.06;37.84
54453;BME280;40363;52.270;10.546;2022-07-10T11:56:29;75846.00;;;-147.06;37.49
54453;BME280;40363;52.270;10.546;2022-07-10T11:58:58;75864.50;;;-147.06;37.39
54453;BME280;40363;52.270;10.546;2022-07-10T12:01:26;75839.84;;;-147.06;37.04
54453;BME280;40363;52.270;10.546;2022-07-10T12:03:58;75786.41;;;-147.06;36.24
54453;BME280;40363;52.270;10.546;2022-07-10T12:06:27;75786.41;;;-147.06;36.50
54453;BME280;40363;52.270;10.546;2022-07-10T12:08:54;75778.19;;;-147.06;36.68
54453;BME280;40363;52.270;10.546;2022-07-10T12:11:22;75790.53;;;-147.06;36.52
54453;BME280;40363;52.270;10.546;2022-07-10T12:13:50;75809.03;;;-147.06;36.51
54453;BME280;40363;52.270;10.546;2022-07-10T12:16:19;75823.41;;;-147.06;37.10
54453;BME280;40363;52.270;10.546;2022-07-10T12:18:46;75835.75;;;-147.06;37.42
54453;BME280;40363;52.270;10.546;2022-07-10T12:21:14;75852.19;;;-147.06;37.96
54453;BME280;40363;52.270;10.546;2022-07-10T12:23:44;75811.06;;;-147.06;37.73
54453;BME280;40363;52.270;10.546;2022-07-10T12:26:12;75850.13;;;-147.06;37.54
54453;BME280;40363;52.270;10.546;2022-07-10T12:28:49;75864.50;;;-147.06;37.61
54453;BME280;40363;52.270;10.546;2022-07-10T12:31:20;75819.28;;;-147.06;37.94
54453;BME280;40363;52.270;10.546;2022-07-10T12:33:50;75864.50;;;-147.06;38.16
54453;BME280;40363;52.270;10.546;2022-07-10T12:36:17;75880.94;;;-147.06;38.42